^^
Paulen-Weather Station Historical Data
Daily Summary for July 13, 2022 Units:  Metric    English   Both
Daily Weekly Monthly Yearly Custom
  High: Low: Average:
Temperature: 16 °C 15 °C 16 °C
Dew Point: 16 °C 15 °C 15.2 °C
Humidity: 96% 94% 95%
Wind Speed: 16km/h 3km/h 8.4km/h
Wind Gust: 12km/h - -
Wind- - SW
Pressure: 1014.93 hPa 1012.73 hPa -
Precipitation: 0 mm    
Historical Graphs
 
 
Tabular Data for July 13, 2022
Time Temperature Dew Point Pressure Wind Wind Speed Wind Gust Humidity Rainfall Rate (Hourly) solar
00:04 16 °C 15 °C 1014.83 hPa SW 10 km/h 7 km/h 95% 0 mm 0 W/m2
00:09 16 °C 15 °C 1014.9 hPa SW 9 km/h 8 km/h 95% 0 mm 0 W/m2
00:14 16 °C 15 °C 1014.9 hPa SW 10 km/h 8 km/h 95% 0 mm 0 W/m2
00:19 16 °C 15 °C 1014.87 hPa SW 12 km/h 9 km/h 95% 0 mm 0 W/m2
00:24 16 °C 15 °C 1014.93 hPa SW 14 km/h 11 km/h 95% 0 mm 0 W/m2
00:29 16 °C 15 °C 1014.87 hPa SW 14 km/h 10 km/h 95% 0 mm 0 W/m2
00:34 16 °C 15 °C 1014.8 hPa SW 15 km/h 11 km/h 95% 0 mm 0 W/m2
00:39 16 °C 15 °C 1014.77 hPa SSW 13 km/h 10 km/h 95% 0 mm 0 W/m2
00:44 16 °C 15 °C 1014.66 hPa SW 13 km/h 12 km/h 95% 0 mm 0 W/m2
00:49 16 °C 15 °C 1014.63 hPa SW 12 km/h 9 km/h 95% 0 mm 0 W/m2
00:54 16 °C 15 °C 1014.63 hPa SW 12 km/h 10 km/h 95% 0 mm 0 W/m2
00:59 16 °C 15 °C 1014.6 hPa SW 13 km/h 9 km/h 95% 0 mm 0 W/m2
01:04 16 °C 15 °C 1014.56 hPa SW 12 km/h 9 km/h 95% 0 mm 0 W/m2
01:09 16 °C 16 °C 1014.53 hPa SW 12 km/h 10 km/h 95% 0 mm 0 W/m2
01:14 16 °C 15 °C 1014.56 hPa SW 11 km/h 8 km/h 95% 0 mm 0 W/m2
01:19 16 °C 15 °C 1014.53 hPa SW 14 km/h 8 km/h 95% 0 mm 0 W/m2
01:24 16 °C 15 °C 1014.49 hPa SW 16 km/h 9 km/h 95% 0 mm 0 W/m2
01:29 16 °C 16 °C 1014.49 hPa SW 10 km/h 8 km/h 95% 0 mm 0 W/m2
01:34 16 °C 16 °C 1014.43 hPa WSW 10 km/h 7 km/h 95% 0 mm 0 W/m2
01:39 16 °C 16 °C 1014.36 hPa SW 13 km/h 9 km/h 96% 0 mm 0 W/m2
01:44 16 °C 16 °C 1014.33 hPa WSW 12 km/h 9 km/h 95% 0 mm 0 W/m2
01:49 16 °C 16 °C 1014.33 hPa WSW 13 km/h 7 km/h 95% 0 mm 0 W/m2
01:54 16 °C 16 °C 1014.26 hPa WSW 7 km/h 6 km/h 95% 0 mm 0 W/m2
01:59 16 °C 16 °C 1014.26 hPa SW 8 km/h 8 km/h 95% 0 mm 0 W/m2
02:04 16 °C 16 °C 1014.26 hPa SSW 11 km/h 7 km/h 95% 0 mm 0 W/m2
02:09 16 °C 15 °C 1014.19 hPa WSW 11 km/h 8 km/h 95% 0 mm 0 W/m2
02:14 16 °C 16 °C 1014.19 hPa WSW 13 km/h 12 km/h 95% 0 mm 0 W/m2
02:19 16 °C 15 °C 1014.12 hPa W 8 km/h 6 km/h 95% 0 mm 0 W/m2
02:24 16 °C 15 °C 1014.16 hPa WSW 8 km/h 6 km/h 95% 0 mm 0 W/m2
02:29 16 °C 15 °C 1014.16 hPa SW 7 km/h 7 km/h 95% 0 mm 0 W/m2
02:34 16 °C 15 °C 1014.22 hPa SW 9 km/h 8 km/h 95% 0 mm 0 W/m2
02:39 16 °C 15 °C 1014.16 hPa WSW 7 km/h 8 km/h 95% 0 mm 0 W/m2
02:44 16 °C 15 °C 1014.09 hPa SW 7 km/h 5 km/h 95% 0 mm 0 W/m2
02:49 16 °C 15 °C 1013.99 hPa SW 6 km/h 6 km/h 95% 0 mm 0 W/m2
02:54 16 °C 15 °C 1014.02 hPa WSW 5 km/h 3 km/h 94% 0 mm 0 W/m2
02:59 16 °C 15 °C 1013.95 hPa WSW 5 km/h 3 km/h 94% 0 mm 0 W/m2
03:04 16 °C 15 °C 1013.95 hPa WSW 5 km/h 4 km/h 94% 0 mm 0 W/m2
03:09 16 °C 15 °C 1013.85 hPa W 5 km/h 4 km/h 94% 0 mm 0 W/m2
03:14 16 °C 15 °C 1013.75 hPa WSW 5 km/h 3 km/h 94% 0 mm 0 W/m2
03:19 16 °C 15 °C 1013.68 hPa WSW 6 km/h 5 km/h 94% 0 mm 0 W/m2
03:24 16 °C 15 °C 1013.65 hPa WSW 5 km/h 6 km/h 95% 0 mm 0 W/m2
03:29 16 °C 15 °C 1013.61 hPa SW 5 km/h 4 km/h 95% 0 mm 0 W/m2
03:34 16 °C 15 °C 1013.48 hPa SW 3 km/h 2 km/h 95% 0 mm 0 W/m2
03:39 16 °C 15 °C 1013.41 hPa WSW 4 km/h 2 km/h 95% 0 mm 0 W/m2
03:44 16 °C 15 °C 1013.34 hPa WSW 3 km/h 3 km/h 95% 0 mm 0 W/m2
03:49 16 °C 15 °C 1013.41 hPa SW 5 km/h 5 km/h 95% 0 mm 0 W/m2
03:54 16 °C 15 °C 1013.48 hPa SW 5 km/h 5 km/h 95% 0 mm 0 W/m2
03:59 16 °C 15 °C 1013.44 hPa SSW 4 km/h 3 km/h 95% 0 mm 0 W/m2
04:04 15 °C 15 °C 1013.34 hPa SSW 7 km/h 6 km/h 95% 0 mm 0 W/m2
04:09 16 °C 15 °C 1013.31 hPa SW 7 km/h 6 km/h 95% 0 mm 0 W/m2
04:14 15 °C 15 °C 1013.44 hPa SW 6 km/h 5 km/h 95% 0 mm 0 W/m2
04:19 16 °C 15 °C 1013.44 hPa SW 6 km/h 5 km/h 95% 0 mm 0 W/m2
04:24 16 °C 15 °C 1013.21 hPa SW 5 km/h 4 km/h 95% 0 mm 0 W/m2
04:29 16 °C 15 °C 1013.21 hPa SW 4 km/h 4 km/h 95% 0 mm 0 W/m2
04:34 16 °C 15 °C 1013.21 hPa SW 7 km/h 7 km/h 95% 0 mm 5 W/m2
04:39 16 °C 15 °C 1013.14 hPa SW 8 km/h 6 km/h 95% 0 mm 5 W/m2
04:44 16 °C 15 °C 1013.14 hPa SW 6 km/h 5 km/h 96% 0 mm 5 W/m2
04:49 16 °C 15 °C 1013.07 hPa SW 5 km/h 5 km/h 96% 0 mm 5 W/m2
04:54 16 °C 15 °C 1012.9 hPa SW 6 km/h 5 km/h 96% 0 mm 7 W/m2
04:59 16 °C 15 °C 1012.77 hPa SW 6 km/h 5 km/h 96% 0 mm 11 W/m2
05:04 16 °C 15 °C 1012.73 hPa SW 5 km/h 5 km/h 96% 0 mm 12 W/m2
05:09 16 °C 15 °C 1012.73 hPa SW 5 km/h 4 km/h 96% 0 mm 16 W/m2
Compliments of Weather Underground - 2 mb